sensor_id;sensor_type;location;lat;lon;timestamp;P1;durP1;ratioP1;P2;durP2;ratioP2
43327;SDS011;28923;45.412;10.852;2023-04-06T00:00:31;2.90;;;1.70;;
43327;SDS011;28923;45.412;10.852;2023-04-06T00:02:56;2.35;;;1.92;;
43327;SDS011;28923;45.412;10.852;2023-04-06T00:05:22;2.10;;;1.40;;
43327;SDS011;28923;45.412;10.852;2023-04-06T00:07:48;2.50;;;1.60;;
43327;SDS011;28923;45.412;10.852;2023-04-06T00:10:15;1.95;;;1.75;;
43327;SDS011;28923;45.412;10.852;2023-04-06T00:12:41;2.40;;;1.70;;
43327;SDS011;28923;45.412;10.852;2023-04-06T00:15:07;1.73;;;1.50;;
43327;SDS011;28923;45.412;10.852;2023-04-06T00:17:32;3.08;;;1.55;;
43327;SDS011;28923;45.412;10.852;2023-04-06T00:19:58;2.42;;;1.67;;
43327;SDS011;28923;45.412;10.852;2023-04-06T00:22:24;2.03;;;1.50;;
43327;SDS011;28923;45.412;10.852;2023-04-06T00:24:49;2.05;;;1.58;;
43327;SDS011;28923;45.412;10.852;2023-04-06T00:27:15;2.30;;;1.58;;
43327;SDS011;28923;45.412;10.852;2023-04-06T00:29:40;2.45;;;1.52;;
43327;SDS011;28923;45.412;10.852;2023-04-06T00:32:06;1.67;;;1.40;;
43327;SDS011;28923;45.412;10.852;2023-04-06T00:34:32;1.90;;;1.60;;
43327;SDS011;28923;45.412;10.852;2023-04-06T00:36:58;1.85;;;1.50;;
43327;SDS011;28923;45.412;10.852;2023-04-06T00:39:24;2.63;;;1.58;;
43327;SDS011;28923;45.412;10.852;2023-04-06T00:41:50;1.48;;;1.38;;
43327;SDS011;28923;45.412;10.852;2023-04-06T00:44:16;1.90;;;1.70;;
43327;SDS011;28923;45.412;10.852;2023-04-06T00:46:42;3.17;;;1.40;;
43327;SDS011;28923;45.412;10.852;2023-04-06T00:49:07;1.63;;;1.52;;
43327;SDS011;28923;45.412;10.852;2023-04-06T00:51:33;1.80;;;1.45;;
43327;SDS011;28923;45.412;10.852;2023-04-06T00:53:59;1.70;;;1.40;;
43327;SDS011;28923;45.412;10.852;2023-04-06T00:56:25;2.15;;;1.67;;
43327;SDS011;28923;45.412;10.852;2023-04-06T00:58:52;2.22;;;1.83;;
43327;SDS011;28923;45.412;10.852;2023-04-06T01:01:18;2.33;;;1.50;;
43327;SDS011;28923;45.412;10.852;2023-04-06T01:03:46;1.92;;;1.40;;
43327;SDS011;28923;45.412;10.852;2023-04-06T01:06:15;2.10;;;1.50;;
43327;SDS011;28923;45.412;10.852;2023-04-06T01:08:44;2.60;;;1.52;;
43327;SDS011;28923;45.412;10.852;2023-04-06T01:11:17;2.47;;;1.58;;
43327;SDS011;28923;45.412;10.852;2023-04-06T01:13:43;1.17;;;1.00;;
43327;SDS011;28923;45.412;10.852;2023-04-06T01:16:35;2.33;;;1.38;;
43327;SDS011;28923;45.412;10.852;2023-04-06T01:19:10;1.25;;;1.15;;
43327;SDS011;28923;45.412;10.852;2023-04-06T01:21:39;2.00;;;1.27;;
43327;SDS011;28923;45.412;10.852;2023-04-06T01:24:23;1.73;;;1.25;;
43327;SDS011;28923;45.412;10.852;2023-04-06T01:27:04;1.33;;;1.23;;
43327;SDS011;28923;45.412;10.852;2023-04-06T01:30:02;3.75;;;1.35;;
43327;SDS011;28923;45.412;10.852;2023-04-06T01:32:39;1.73;;;1.15;;
43327;SDS011;28923;45.412;10.852;2023-04-06T01:35:06;1.38;;;1.17;;
43327;SDS011;28923;45.412;10.852;2023-04-06T01:37:36;1.95;;;1.52;;
43327;SDS011;28923;45.412;10.852;2023-04-06T01:40:04;1.52;;;1.40;;
43327;SDS011;28923;45.412;10.852;2023-04-06T01:42:56;1.53;;;1.30;;
43327;SDS011;28923;45.412;10.852;2023-04-06T01:45:32;1.50;;;1.20;;
43327;SDS011;28923;45.412;10.852;2023-04-06T01:48:07;2.50;;;1.42;;
43327;SDS011;28923;45.412;10.852;2023-04-06T01:50:33;2.10;;;1.52;;
43327;SDS011;28923;45.412;10.852;2023-04-06T01:52:59;1.80;;;1.20;;
43327;SDS011;28923;45.412;10.852;2023-04-06T01:55:27;2.45;;;1.60;;
43327;SDS011;28923;45.412;10.852;2023-04-06T01:58:13;2.28;;;1.48;;
43327;SDS011;28923;45.412;10.852;2023-04-06T02:00:39;2.05;;;1.23;;
43327;SDS011;28923;45.412;10.852;2023-04-06T02:03:05;1.45;;;1.27;;
43327;SDS011;28923;45.412;10.852;2023-04-06T02:05:32;2.40;;;1.40;;
43327;SDS011;28923;45.412;10.852;2023-04-06T02:08:14;2.25;;;1.60;;
43327;SDS011;28923;45.412;10.852;2023-04-06T02:10:39;1.80;;;1.20;;
43327;SDS011;28923;45.412;10.852;2023-04-06T02:13:14;1.58;;;1.38;;
43327;SDS011;28923;45.412;10.852;2023-04-06T02:15:45;1.95;;;1.30;;
43327;SDS011;28923;45.412;10.852;2023-04-06T02:18:11;2.22;;;1.33;;
43327;SDS011;28923;45.412;10.852;2023-04-06T02:20:37;1.50;;;1.30;;
43327;SDS011;28923;45.412;10.852;2023-04-06T02:23:02;1.80;;;1.40;;
43327;SDS011;28923;45.412;10.852;2023-04-06T02:25:28;1.63;;;1.40;;
43327;SDS011;28923;45.412;10.852;2023-04-06T02:27:54;1.40;;;1.30;;
43327;SDS011;28923;45.412;10.852;2023-04-06T02:30:20;1.67;;;1.40;;
43327;SDS011;28923;45.412;10.852;2023-04-06T02:32:45;1.88;;;1.50;;
43327;SDS011;28923;45.412;10.852;2023-04-06T02:35:12;1.40;;;1.30;;
43327;SDS011;28923;45.412;10.852;2023-04-06T02:37:39;1.77;;;1.40;;
43327;SDS011;28923;45.412;10.852;2023-04-06T02:40:05;1.88;;;1.52;;
43327;SDS011;28923;45.412;10.852;2023-04-06T02:42:31;1.52;;;1.30;;
43327;SDS011;28923;45.412;10.852;2023-04-06T02:44:59;2.35;;;1.38;;
43327;SDS011;28923;45.412;10.852;2023-04-06T02:47:31;1.27;;;1.17;;
43327;SDS011;28923;45.412;10.852;2023-04-06T02:49:57;1.70;;;1.17;;
43327;SDS011;28923;45.412;10.852;2023-04-06T02:52:23;1.45;;;1.30;;
43327;SDS011;28923;45.412;10.852;2023-04-06T02:54:49;1.77;;;1.38;;
43327;SDS011;28923;45.412;10.852;2023-04-06T02:57:22;1.50;;;1.20;;
43327;SDS011;28923;45.412;10.852;2023-04-06T02:59:48;1.80;;;1.40;;
43327;SDS011;28923;45.412;10.852;2023-04-06T03:02:20;1.60;;;1.17;;
43327;SDS011;28923;45.412;10.852;2023-04-06T03:04:46;2.05;;;1.50;;
43327;SDS011;28923;45.412;10.852;2023-04-06T03:07:27;2.10;;;1.23;;
43327;SDS011;28923;45.412;10.852;2023-04-06T03:09:53;1.42;;;1.10;;
43327;SDS011;28923;45.412;10.852;2023-04-06T03:12:20;1.58;;;1.40;;
43327;SDS011;28923;45.412;10.852;2023-04-06T03:15:21;2.38;;;1.58;;
43327;SDS011;28923;45.412;10.852;2023-04-06T03:17:51;1.60;;;1.40;;
43327;SDS011;28923;45.412;10.852;2023-04-06T03:20:49;2.17;;;1.33;;
43327;SDS011;28923;45.412;10.852;2023-04-06T03:23:17;1.88;;;1.42;;
43327;SDS011;28923;45.412;10.852;2023-04-06T03:25:44;1.70;;;1.48;;
43327;SDS011;28923;45.412;10.852;2023-04-06T03:28:14;1.73;;;1.20;;
43327;SDS011;28923;45.412;10.852;2023-04-06T03:30:49;1.92;;;1.50;;
43327;SDS011;28923;45.412;10.852;2023-04-06T03:33:19;1.60;;;1.30;;
43327;SDS011;28923;45.412;10.852;2023-04-06T03:35:52;2.47;;;1.20;;
43327;SDS011;28923;45.412;10.852;2023-04-06T03:38:17;1.77;;;1.38;;
43327;SDS011;28923;45.412;10.852;2023-04-06T03:40:43;1.42;;;1.08;;
43327;SDS011;28923;45.412;10.852;2023-04-06T03:43:08;2.10;;;1.30;;
43327;SDS011;28923;45.412;10.852;2023-04-06T03:45:36;1.40;;;1.30;;
43327;SDS011;28923;45.412;10.852;2023-04-06T03:48:03;1.40;;;1.30;;
43327;SDS011;28923;45.412;10.852;2023-04-06T03:50:31;1.30;;;1.20;;
43327;SDS011;28923;45.412;10.852;2023-04-06T03:52:58;1.42;;;1.20;;
43327;SDS011;28923;45.412;10.852;2023-04-06T03:55:24;3.05;;;1.27;;
43327;SDS011;28923;45.412;10.852;2023-04-06T03:57:49;1.98;;;1.30;;
43327;SDS011;28923;45.412;10.852;2023-04-06T04:00:16;1.48;;;1.30;;
43327;SDS011;28923;45.412;10.852;2023-04-06T04:02:42;2.05;;;1.40;;
43327;SDS011;28923;45.412;10.852;2023-04-06T04:05:08;1.60;;;1.40;;
43327;SDS011;28923;45.412;10.852;2023-04-06T04:07:35;1.30;;;1.20;;
43327;SDS011;28923;45.412;10.852;2023-04-06T04:10:02;1.20;;;1.05;;
43327;SDS011;28923;45.412;10.852;2023-04-06T04:12:29;1.88;;;1.20;;
43327;SDS011;28923;45.412;10.852;2023-04-06T04:14:56;2.83;;;1.52;;
43327;SDS011;28923;45.412;10.852;2023-04-06T04:17:22;1.50;;;1.23;;
43327;SDS011;28923;45.412;10.852;2023-04-06T04:19:47;1.52;;;1.30;;
43327;SDS011;28923;45.412;10.852;2023-04-06T04:22:14;1.65;;;1.20;;
43327;SDS011;28923;45.412;10.852;2023-04-06T04:24:41;1.98;;;1.23;;
43327;SDS011;28923;45.412;10.852;2023-04-06T04:27:07;1.52;;;1.38;;
43327;SDS011;28923;45.412;10.852;2023-04-06T04:29:34;1.63;;;1.30;;
43327;SDS011;28923;45.412;10.852;2023-04-06T04:32:03;1.63;;;1.50;;
43327;SDS011;28923;45.412;10.852;2023-04-06T04:34:29;1.50;;;1.40;;
43327;SDS011;28923;45.412;10.852;2023-04-06T04:36:55;2.38;;;1.38;;
43327;SDS011;28923;45.412;10.852;2023-04-06T04:39:32;1.63;;;1.15;;
43327;SDS011;28923;45.412;10.852;2023-04-06T04:42:02;1.30;;;1.20;;
43327;SDS011;28923;45.412;10.852;2023-04-06T04:44:29;2.58;;;1.40;;
43327;SDS011;28923;45.412;10.852;2023-04-06T04:46:55;1.38;;;1.27;;
43327;SDS011;28923;45.412;10.852;2023-04-06T04:49:29;1.60;;;1.50;;
43327;SDS011;28923;45.412;10.852;2023-04-06T04:51:55;1.75;;;1.27;;
43327;SDS011;28923;45.412;10.852;2023-04-06T04:54:28;2.92;;;1.30;;
43327;SDS011;28923;45.412;10.852;2023-04-06T04:56:54;2.40;;;1.50;;
43327;SDS011;28923;45.412;10.852;2023-04-06T04:59:46;5.40;;;1.40;;
43327;SDS011;28923;45.412;10.852;2023-04-06T05:02:16;9.82;;;1.55;;
43327;SDS011;28923;45.412;10.852;2023-04-06T05:04:52;2.85;;;1.27;;
43327;SDS011;28923;45.412;10.852;2023-04-06T05:07:22;4.00;;;1.65;;
43327;SDS011;28923;45.412;10.852;2023-04-06T05:09:49;4.00;;;1.48;;
43327;SDS011;28923;45.412;10.852;2023-04-06T05:12:16;2.13;;;1.40;;
43327;SDS011;28923;45.412;10.852;2023-04-06T05:14:51;4.72;;;1.63;;
43327;SDS011;28923;45.412;10.852;2023-04-06T05:17:19;3.95;;;1.20;;
43327;SDS011;28923;45.412;10.852;2023-04-06T05:19:44;5.07;;;1.60;;
43327;SDS011;28923;45.412;10.852;2023-04-06T05:22:13;5.65;;;1.35;;
43327;SDS011;28923;45.412;10.852;2023-04-06T05:24:44;4.63;;;1.35;;
43327;SDS011;28923;45.412;10.852;2023-04-06T05:27:10;5.00;;;1.40;;
43327;SDS011;28923;45.412;10.852;2023-04-06T05:29:37;2.85;;;1.45;;
43327;SDS011;28923;45.412;10.852;2023-04-06T05:32:02;3.50;;;1.88;;
43327;SDS011;28923;45.412;10.852;2023-04-06T05:34:29;3.20;;;1.50;;
43327;SDS011;28923;45.412;10.852;2023-04-06T05:36:55;2.53;;;1.30;;
43327;SDS011;28923;45.412;10.852;2023-04-06T05:39:24;2.55;;;1.23;;
43327;SDS011;28923;45.412;10.852;2023-04-06T05:41:52;4.30;;;1.88;;
43327;SDS011;28923;45.412;10.852;2023-04-06T05:44:29;2.85;;;1.30;;
43327;SDS011;28923;45.412;10.852;2023-04-06T05:47:04;3.97;;;1.80;;
43327;SDS011;28923;45.412;10.852;2023-04-06T05:49:30;2.67;;;1.60;;
43327;SDS011;28923;45.412;10.852;2023-04-06T05:51:56;4.05;;;1.13;;
43327;SDS011;28923;45.412;10.852;2023-04-06T05:54:22;11.57;;;1.92;;
43327;SDS011;28923;45.412;10.852;2023-04-06T05:56:49;13.95;;;2.30;;
43327;SDS011;28923;45.412;10.852;2023-04-06T05:59:15;10.02;;;2.15;;
43327;SDS011;28923;45.412;10.852;2023-04-06T06:01:42;9.15;;;1.80;;
43327;SDS011;28923;45.412;10.852;2023-04-06T06:04:09;5.05;;;1.50;;
43327;SDS011;28923;45.412;10.852;2023-04-06T06:06:37;9.73;;;1.77;;
43327;SDS011;28923;45.412;10.852;2023-04-06T06:09:18;8.75;;;1.88;;
43327;SDS011;28923;45.412;10.852;2023-04-06T06:12:09;7.82;;;2.05;;
43327;SDS011;28923;45.412;10.852;2023-04-06T06:14:35;6.82;;;1.85;;
43327;SDS011;28923;45.412;10.852;2023-04-06T06:17:01;11.88;;;2.00;;
43327;SDS011;28923;45.412;10.852;2023-04-06T06:19:27;3.92;;;1.60;;
43327;SDS011;28923;45.412;10.852;2023-04-06T06:21:56;4.20;;;1.63;;
43327;SDS011;28923;45.412;10.852;2023-04-06T06:24:22;7.40;;;1.73;;
43327;SDS011;28923;45.412;10.852;2023-04-06T06:26:48;7.55;;;1.95;;
43327;SDS011;28923;45.412;10.852;2023-04-06T06:29:16;7.88;;;2.03;;
43327;SDS011;28923;45.412;10.852;2023-04-06T06:31:42;7.57;;;2.72;;
43327;SDS011;28923;45.412;10.852;2023-04-06T06:34:07;3.28;;;1.52;;
43327;SDS011;28923;45.412;10.852;2023-04-06T06:36:35;8.07;;;2.17;;
43327;SDS011;28923;45.412;10.852;2023-04-06T06:39:04;3.72;;;1.73;;
43327;SDS011;28923;45.412;10.852;2023-04-06T06:41:30;8.23;;;2.25;;
43327;SDS011;28923;45.412;10.852;2023-04-06T06:43:56;4.63;;;1.60;;
43327;SDS011;28923;45.412;10.852;2023-04-06T06:46:22;7.00;;;2.13;;
43327;SDS011;28923;45.412;10.852;2023-04-06T06:48:48;5.80;;;2.30;;
43327;SDS011;28923;45.412;10.852;2023-04-06T06:51:13;7.80;;;2.33;;
43327;SDS011;28923;45.412;10.852;2023-04-06T06:53:39;5.80;;;2.25;;
43327;SDS011;28923;45.412;10.852;2023-04-06T06:56:05;4.35;;;2.33;;
43327;SDS011;28923;45.412;10.852;2023-04-06T06:58:31;4.75;;;1.77;;
43327;SDS011;28923;45.412;10.852;2023-04-06T07:00:58;6.43;;;2.55;;
43327;SDS011;28923;45.412;10.852;2023-04-06T07:03:25;7.43;;;2.10;;
43327;SDS011;28923;45.412;10.852;2023-04-06T07:05:51;5.32;;;2.00;;
43327;SDS011;28923;45.412;10.852;2023-04-06T07:08:22;4.82;;;2.05;;
43327;SDS011;28923;45.412;10.852;2023-04-06T07:10:49;6.00;;;2.10;;
43327;SDS011;28923;45.412;10.852;2023-04-06T07:13:17;7.90;;;2.28;;
43327;SDS011;28923;45.412;10.852;2023-04-06T07:15:48;5.75;;;2.42;;
43327;SDS011;28923;45.412;10.852;2023-04-06T07:18:14;5.45;;;2.17;;
43327;SDS011;28923;45.412;10.852;2023-04-06T07:20:40;6.85;;;1.95;;
43327;SDS011;28923;45.412;10.852;2023-04-06T07:23:06;3.75;;;1.75;;
43327;SDS011;28923;45.412;10.852;2023-04-06T07:25:31;6.25;;;2.03;;
43327;SDS011;28923;45.412;10.852;2023-04-06T07:27:57;10.18;;;2.20;;
43327;SDS011;28923;45.412;10.852;2023-04-06T07:30:24;8.98;;;2.90;;
43327;SDS011;28923;45.412;10.852;2023-04-06T07:32:53;15.73;;;3.03;;
43327;SDS011;28923;45.412;10.852;2023-04-06T07:35:22;12.48;;;2.58;;
43327;SDS011;28923;45.412;10.852;2023-04-06T07:37:47;13.43;;;3.03;;
43327;SDS011;28923;45.412;10.852;2023-04-06T07:40:13;10.10;;;2.67;;
43327;SDS011;28923;45.412;10.852;2023-04-06T07:42:40;16.92;;;3.10;;
43327;SDS011;28923;45.412;10.852;2023-04-06T07:45:07;10.88;;;3.20;;
43327;SDS011;28923;45.412;10.852;2023-04-06T07:47:33;15.88;;;3.22;;
43327;SDS011;28923;45.412;10.852;2023-04-06T07:49:59;14.50;;;2.67;;
43327;SDS011;28923;45.412;10.852;2023-04-06T07:52:25;16.25;;;3.00;;
43327;SDS011;28923;45.412;10.852;2023-04-06T07:54:51;12.05;;;2.70;;
43327;SDS011;28923;45.412;10.852;2023-04-06T07:57:17;9.30;;;2.60;;
43327;SDS011;28923;45.412;10.852;2023-04-06T07:59:43;8.35;;;2.67;;
43327;SDS011;28923;45.412;10.852;2023-04-06T08:02:09;7.90;;;2.45;;
43327;SDS011;28923;45.412;10.852;2023-04-06T08:04:35;9.85;;;2.55;;
43327;SDS011;28923;45.412;10.852;2023-04-06T08:07:00;11.10;;;2.72;;
43327;SDS011;28923;45.412;10.852;2023-04-06T08:09:26;12.02;;;2.63;;
43327;SDS011;28923;45.412;10.852;2023-04-06T08:11:52;6.45;;;2.25;;
43327;SDS011;28923;45.412;10.852;2023-04-06T08:14:17;7.78;;;2.28;;
43327;SDS011;28923;45.412;10.852;2023-04-06T08:16:43;7.95;;;2.58;;
43327;SDS011;28923;45.412;10.852;2023-04-06T08:19:09;7.07;;;1.98;;
43327;SDS011;28923;45.412;10.852;2023-04-06T08:21:35;9.07;;;2.08;;
43327;SDS011;28923;45.412;10.852;2023-04-06T08:24:02;10.10;;;2.70;;
43327;SDS011;28923;45.412;10.852;2023-04-06T08:26:28;5.93;;;1.95;;
43327;SDS011;28923;45.412;10.852;2023-04-06T08:28:53;5.35;;;2.10;;
43327;SDS011;28923;45.412;10.852;2023-04-06T08:31:19;5.65;;;2.22;;
43327;SDS011;28923;45.412;10.852;2023-04-06T08:33:45;9.68;;;2.35;;
43327;SDS011;28923;45.412;10.852;2023-04-06T08:36:11;4.10;;;1.63;;
43327;SDS011;28923;45.412;10.852;2023-04-06T08:38:37;4.90;;;2.20;;
43327;SDS011;28923;45.412;10.852;2023-04-06T08:41:09;7.88;;;2.30;;
43327;SDS011;28923;45.412;10.852;2023-04-06T08:46:13;6.05;;;1.90;;
43327;SDS011;28923;45.412;10.852;2023-04-06T08:48:40;7.75;;;2.08;;
43327;SDS011;28923;45.412;10.852;2023-04-06T08:51:06;7.38;;;2.05;;
43327;SDS011;28923;45.412;10.852;2023-04-06T08:53:31;6.22;;;2.15;;
43327;SDS011;28923;45.412;10.852;2023-04-06T08:55:57;6.00;;;2.20;;
43327;SDS011;28923;45.412;10.852;2023-04-06T08:58:24;6.78;;;2.00;;
43327;SDS011;28923;45.412;10.852;2023-04-06T09:00:50;5.10;;;1.80;;
43327;SDS011;28923;45.412;10.852;2023-04-06T09:03:16;7.10;;;2.17;;
43327;SDS011;28923;45.412;10.852;2023-04-06T09:05:42;7.22;;;2.15;;
43327;SDS011;28923;45.412;10.852;2023-04-06T09:08:08;3.75;;;2.03;;
43327;SDS011;28923;45.412;10.852;2023-04-06T09:10:34;4.70;;;1.83;;
43327;SDS011;28923;45.412;10.852;2023-04-06T09:13:04;6.57;;;2.30;;
43327;SDS011;28923;45.412;10.852;2023-04-06T09:15:30;5.75;;;1.88;;
43327;SDS011;28923;45.412;10.852;2023-04-06T09:17:56;7.18;;;1.90;;
43327;SDS011;28923;45.412;10.852;2023-04-06T09:20:23;3.85;;;2.00;;
43327;SDS011;28923;45.412;10.852;2023-04-06T09:22:50;3.20;;;2.10;;
43327;SDS011;28923;45.412;10.852;2023-04-06T09:25:19;4.90;;;1.83;;
43327;SDS011;28923;45.412;10.852;2023-04-06T09:27:46;5.07;;;2.15;;
43327;SDS011;28923;45.412;10.852;2023-04-06T09:30:12;5.15;;;1.50;;
43327;SDS011;28923;45.412;10.852;2023-04-06T09:32:45;4.38;;;1.52;;
43327;SDS011;28923;45.412;10.852;2023-04-06T09:35:12;4.38;;;1.42;;
43327;SDS011;28923;45.412;10.852;2023-04-06T09:37:38;4.97;;;1.75;;
43327;SDS011;28923;45.412;10.852;2023-04-06T09:40:04;5.35;;;1.90;;
43327;SDS011;28923;45.412;10.852;2023-04-06T09:42:30;6.10;;;2.25;;
43327;SDS011;28923;45.412;10.852;2023-04-06T09:44:56;12.43;;;4.05;;
43327;SDS011;28923;45.412;10.852;2023-04-06T09:47:22;12.15;;;4.65;;
43327;SDS011;28923;45.412;10.852;2023-04-06T09:49:55;11.82;;;3.95;;
43327;SDS011;28923;45.412;10.852;2023-04-06T09:52:21;8.77;;;3.30;;
43327;SDS011;28923;45.412;10.852;2023-04-06T09:54:47;7.43;;;3.67;;
43327;SDS011;28923;45.412;10.852;2023-04-06T09:57:20;11.43;;;4.07;;
43327;SDS011;28923;45.412;10.852;2023-04-06T09:59:57;8.80;;;3.33;;
43327;SDS011;28923;45.412;10.852;2023-04-06T10:02:32;8.93;;;3.53;;
43327;SDS011;28923;45.412;10.852;2023-04-06T10:05:02;8.50;;;3.28;;
43327;SDS011;28923;45.412;10.852;2023-04-06T10:07:30;9.85;;;3.40;;
43327;SDS011;28923;45.412;10.852;2023-04-06T10:09:56;6.95;;;2.92;;
43327;SDS011;28923;45.412;10.852;2023-04-06T10:12:22;8.77;;;3.40;;
43327;SDS011;28923;45.412;10.852;2023-04-06T10:14:48;7.72;;;2.97;;
43327;SDS011;28923;45.412;10.852;2023-04-06T10:17:14;6.25;;;2.97;;
43327;SDS011;28923;45.412;10.852;2023-04-06T10:22:12;8.50;;;3.22;;
43327;SDS011;28923;45.412;10.852;2023-04-06T10:24:42;7.53;;;2.90;;
43327;SDS011;28923;45.412;10.852;2023-04-06T10:27:08;7.78;;;2.95;;
43327;SDS011;28923;45.412;10.852;2023-04-06T10:29:43;8.93;;;3.28;;
43327;SDS011;28923;45.412;10.852;2023-04-06T10:34:35;6.45;;;2.50;;
43327;SDS011;28923;45.412;10.852;2023-04-06T10:37:10;8.52;;;2.88;;
43327;SDS011;28923;45.412;10.852;2023-04-06T10:39:36;5.30;;;2.67;;
43327;SDS011;28923;45.412;10.852;2023-04-06T10:42:10;6.80;;;2.80;;
43327;SDS011;28923;45.412;10.852;2023-04-06T10:44:41;8.77;;;2.97;;
43327;SDS011;28923;45.412;10.852;2023-04-06T10:47:14;6.78;;;2.72;;
43327;SDS011;28923;45.412;10.852;2023-04-06T10:49:42;7.88;;;2.63;;
43327;SDS011;28923;45.412;10.852;2023-04-06T10:52:08;9.85;;;2.80;;
43327;SDS011;28923;45.412;10.852;2023-04-06T10:54:34;5.45;;;2.33;;
43327;SDS011;28923;45.412;10.852;2023-04-06T10:57:05;6.63;;;2.47;;
43327;SDS011;28923;45.412;10.852;2023-04-06T10:59:31;7.65;;;2.50;;
43327;SDS011;28923;45.412;10.852;2023-04-06T11:01:57;4.63;;;2.05;;
43327;SDS011;28923;45.412;10.852;2023-04-06T11:04:23;6.05;;;2.53;;
43327;SDS011;28923;45.412;10.852;2023-04-06T11:06:49;5.15;;;2.53;;
43327;SDS011;28923;45.412;10.852;2023-04-06T11:09:27;9.02;;;2.63;;
43327;SDS011;28923;45.412;10.852;2023-04-06T11:11:53;7.82;;;2.45;;
43327;SDS011;28923;45.412;10.852;2023-04-06T11:14:19;4.50;;;2.30;;
43327;SDS011;28923;45.412;10.852;2023-04-06T11:16:46;5.65;;;2.42;;
43327;SDS011;28923;45.412;10.852;2023-04-06T11:19:12;3.15;;;1.90;;
43327;SDS011;28923;45.412;10.852;2023-04-06T11:21:42;4.55;;;2.15;;
43327;SDS011;28923;45.412;10.852;2023-04-06T11:24:13;4.32;;;2.30;;
43327;SDS011;28923;45.412;10.852;2023-04-06T11:27:00;5.82;;;2.20;;
43327;SDS011;28923;45.412;10.852;2023-04-06T11:29:30;5.90;;;2.20;;
43327;SDS011;28923;45.412;10.852;2023-04-06T11:32:00;3.85;;;2.10;;
43327;SDS011;28923;45.412;10.852;2023-04-06T11:34:27;4.97;;;2.10;;
43327;SDS011;28923;45.412;10.852;2023-04-06T11:36:55;7.25;;;2.03;;
43327;SDS011;28923;45.412;10.852;2023-04-06T11:39:23;5.90;;;2.13;;
43327;SDS011;28923;45.412;10.852;2023-04-06T11:41:52;5.53;;;1.88;;
43327;SDS011;28923;45.412;10.852;2023-04-06T11:47:04;7.00;;;2.25;;
43327;SDS011;28923;45.412;10.852;2023-04-06T11:49:31;4.30;;;2.08;;
43327;SDS011;28923;45.412;10.852;2023-04-06T11:51:57;5.38;;;2.00;;
43327;SDS011;28923;45.412;10.852;2023-04-06T11:54:30;3.05;;;2.03;;
43327;SDS011;28923;45.412;10.852;2023-04-06T11:56:56;3.95;;;1.92;;
43327;SDS011;28923;45.412;10.852;2023-04-06T11:59:22;4.95;;;1.98;;
43327;SDS011;28923;45.412;10.852;2023-04-06T12:01:48;3.78;;;1.73;;
43327;SDS011;28923;45.412;10.852;2023-04-06T12:04:13;4.03;;;2.10;;
43327;SDS011;28923;45.412;10.852;2023-04-06T12:06:40;2.80;;;1.98;;
43327;SDS011;28923;45.412;10.852;2023-04-06T12:09:05;3.95;;;2.15;;
43327;SDS011;28923;45.412;10.852;2023-04-06T12:11:31;4.22;;;2.00;;
43327;SDS011;28923;45.412;10.852;2023-04-06T12:13:57;3.97;;;1.77;;
43327;SDS011;28923;45.412;10.852;2023-04-06T12:16:24;3.03;;;1.58;;
43327;SDS011;28923;45.412;10.852;2023-04-06T12:18:51;2.65;;;1.80;;
43327;SDS011;28923;45.412;10.852;2023-04-06T12:21:16;4.35;;;1.88;;
43327;SDS011;28923;45.412;10.852;2023-04-06T12:23:42;2.05;;;1.55;;
43327;SDS011;28923;45.412;10.852;2023-04-06T12:26:08;4.65;;;1.60;;
43327;SDS011;28923;45.412;10.852;2023-04-06T12:28:34;2.30;;;1.48;;
43327;SDS011;28923;45.412;10.852;2023-04-06T12:30:59;2.83;;;1.77;;
43327;SDS011;28923;45.412;10.852;2023-04-06T12:33:25;2.92;;;1.70;;
43327;SDS011;28923;45.412;10.852;2023-04-06T12:35:52;3.10;;;1.83;;
43327;SDS011;28923;45.412;10.852;2023-04-06T12:38:17;3.47;;;1.70;;
43327;SDS011;28923;45.412;10.852;2023-04-06T12:40:43;5.72;;;1.60;;
43327;SDS011;28923;45.412;10.852;2023-04-06T12:43:09;3.47;;;1.60;;
43327;SDS011;28923;45.412;10.852;2023-04-06T12:45:35;3.00;;;1.60;;
43327;SDS011;28923;45.412;10.852;2023-04-06T12:48:01;1.95;;;1.50;;
43327;SDS011;28923;45.412;10.852;2023-04-06T12:50:26;4.57;;;1.58;;
43327;SDS011;28923;45.412;10.852;2023-04-06T12:52:52;2.28;;;1.58;;
43327;SDS011;28923;45.412;10.852;2023-04-06T12:55:18;2.42;;;1.60;;
43327;SDS011;28923;45.412;10.852;2023-04-06T12:57:45;4.13;;;1.50;;
43327;SDS011;28923;45.412;10.852;2023-04-06T13:00:11;2.85;;;1.70;;
43327;SDS011;28923;45.412;10.852;2023-04-06T13:02:38;3.95;;;1.70;;
43327;SDS011;28923;45.412;10.852;2023-04-06T13:05:03;2.38;;;1.50;;
43327;SDS011;28923;45.412;10.852;2023-04-06T13:07:29;3.53;;;1.55;;
43327;SDS011;28923;45.412;10.852;2023-04-06T13:09:55;3.28;;;1.38;;
43327;SDS011;28923;45.412;10.852;2023-04-06T13:12:21;3.65;;;1.33;;
43327;SDS011;28923;45.412;10.852;2023-04-06T13:14:46;5.13;;;1.52;;
43327;SDS011;28923;45.412;10.852;2023-04-06T13:17:16;2.10;;;1.42;;
43327;SDS011;28923;45.412;10.852;2023-04-06T13:19:43;4.57;;;1.63;;
43327;SDS011;28923;45.412;10.852;2023-04-06T13:22:09;2.30;;;1.38;;
43327;SDS011;28923;45.412;10.852;2023-04-06T13:24:34;3.40;;;1.63;;
43327;SDS011;28923;45.412;10.852;2023-04-06T13:27:00;2.80;;;1.40;;
43327;SDS011;28923;45.412;10.852;2023-04-06T13:29:26;2.42;;;1.50;;
43327;SDS011;28923;45.412;10.852;2023-04-06T13:31:52;2.80;;;1.48;;
43327;SDS011;28923;45.412;10.852;2023-04-06T13:34:17;2.78;;;1.48;;
43327;SDS011;28923;45.412;10.852;2023-04-06T13:36:43;3.45;;;1.50;;
43327;SDS011;28923;45.412;10.852;2023-04-06T13:39:09;2.33;;;1.38;;
43327;SDS011;28923;45.412;10.852;2023-04-06T13:41:34;2.95;;;1.50;;
43327;SDS011;28923;45.412;10.852;2023-04-06T13:44:00;1.83;;;1.23;;
43327;SDS011;28923;45.412;10.852;2023-04-06T13:46:26;3.25;;;1.38;;
43327;SDS011;28923;45.412;10.852;2023-04-06T13:48:52;1.88;;;1.25;;
43327;SDS011;28923;45.412;10.852;2023-04-06T13:51:18;2.70;;;1.30;;
43327;SDS011;28923;45.412;10.852;2023-04-06T13:53:44;2.33;;;1.35;;
43327;SDS011;28923;45.412;10.852;2023-04-06T13:56:10;2.97;;;1.63;;
43327;SDS011;28923;45.412;10.852;2023-04-06T13:58:36;2.65;;;1.45;;
43327;SDS011;28923;45.412;10.852;2023-04-06T14:01:05;4.43;;;1.52;;
43327;SDS011;28923;45.412;10.852;2023-04-06T14:03:31;1.70;;;1.42;;
43327;SDS011;28923;45.412;10.852;2023-04-06T14:05:57;3.40;;;1.50;;
43327;SDS011;28923;45.412;10.852;2023-04-06T14:08:23;2.20;;;1.40;;
43327;SDS011;28923;45.412;10.852;2023-04-06T14:10:49;3.15;;;1.60;;
43327;SDS011;28923;45.412;10.852;2023-04-06T14:13:14;1.65;;;1.40;;
43327;SDS011;28923;45.412;10.852;2023-04-06T14:15:40;2.90;;;1.52;;
43327;SDS011;28923;45.412;10.852;2023-04-06T14:18:07;1.52;;;1.30;;
43327;SDS011;28923;45.412;10.852;2023-04-06T14:20:33;2.67;;;1.25;;
43327;SDS011;28923;45.412;10.852;2023-04-06T14:23:01;1.88;;;1.60;;
43327;SDS011;28923;45.412;10.852;2023-04-06T14:25:27;2.65;;;1.30;;
43327;SDS011;28923;45.412;10.852;2023-04-06T14:27:53;3.70;;;1.65;;
43327;SDS011;28923;45.412;10.852;2023-04-06T14:30:19;4.15;;;1.35;;
43327;SDS011;28923;45.412;10.852;2023-04-06T14:32:45;2.25;;;1.20;;
43327;SDS011;28923;45.412;10.852;2023-04-06T14:35:10;2.97;;;1.60;;
43327;SDS011;28923;45.412;10.852;2023-04-06T14:37:36;2.67;;;1.50;;
43327;SDS011;28923;45.412;10.852;2023-04-06T14:40:03;1.20;;;1.10;;
43327;SDS011;28923;45.412;10.852;2023-04-06T14:42:30;1.80;;;1.38;;
43327;SDS011;28923;45.412;10.852;2023-04-06T14:44:57;2.08;;;1.40;;
43327;SDS011;28923;45.412;10.852;2023-04-06T14:47:23;2.70;;;1.42;;